createdAt,value
2022-10-19T00:01:45.198Z,12.50
2022-10-19T00:04:17.859Z,12.70
2022-10-19T00:06:48.258Z,12.80
2022-10-19T00:09:22.633Z,12.90
2022-10-19T00:11:54.241Z,13.00
2022-10-19T00:14:27.167Z,13.20
2022-10-19T00:16:58.209Z,13.20
2022-10-19T00:19:31.336Z,13.20
2022-10-19T00:22:01.345Z,13.30
2022-10-19T00:24:31.441Z,13.20
2022-10-19T00:27:01.516Z,13.30
2022-10-19T00:29:31.720Z,13.20
2022-10-19T00:32:01.781Z,13.10
2022-10-19T00:34:34.476Z,13.10
2022-10-19T00:37:04.460Z,13.10
2022-10-19T00:39:34.461Z,13.00
2022-10-19T00:42:04.477Z,13.00
2022-10-19T00:45:05.089Z,13.00
2022-10-19T00:47:36.025Z,13.00
2022-10-19T00:50:10.781Z,13.10
2022-10-19T00:52:40.889Z,13.20
2022-10-19T00:55:13.863Z,13.30
2022-10-19T00:57:44.190Z,13.40
2022-10-19T01:00:15.594Z,13.40
2022-10-19T01:02:45.610Z,13.40
2022-10-19T01:05:20.167Z,13.50
2022-10-19T01:07:50.470Z,13.50
2022-10-19T01:10:26.068Z,13.60
2022-10-19T01:13:20.222Z,13.60
2022-10-19T01:16:02.346Z,13.60
2022-10-19T01:18:47.762Z,13.60
2022-10-19T01:21:35.153Z,13.60
2022-10-19T01:24:50.809Z,13.60
2022-10-19T01:28:01.728Z,13.60
2022-10-19T01:30:47.897Z,13.50
2022-10-19T01:33:34.442Z,13.40
2022-10-19T01:36:17.891Z,13.50
2022-10-19T01:39:00.548Z,13.60
2022-10-19T01:41:40.285Z,13.70
2022-10-19T01:44:19.643Z,13.70
2022-10-19T01:47:00.858Z,13.60
2022-10-19T01:49:42.047Z,13.60
2022-10-19T01:52:17.607Z,13.70
2022-10-19T01:54:54.589Z,13.80
2022-10-19T01:57:31.212Z,13.90
2022-10-19T02:00:07.318Z,14.00
2022-10-19T02:02:50.607Z,14.00
2022-10-19T02:05:25.818Z,14.10
2022-10-19T02:08:03.632Z,14.00
2022-10-19T02:10:38.036Z,14.00
2022-10-19T02:13:10.528Z,13.90
2022-10-19T02:15:47.347Z,13.70
2022-10-19T02:18:28.257Z,13.70
2022-10-19T02:20:58.869Z,13.90
2022-10-19T02:23:30.086Z,13.90
2022-10-19T02:26:01.277Z,14.00
2022-10-19T02:28:32.977Z,14.00
2022-10-19T02:31:03.796Z,14.10
2022-10-19T02:33:36.655Z,14.20
2022-10-19T02:36:07.404Z,14.10
2022-10-19T02:38:38.088Z,14.20
2022-10-19T02:41:18.840Z,14.20
2022-10-19T02:43:56.235Z,14.20
2022-10-19T02:46:35.188Z,14.20
2022-10-19T02:49:10.876Z,14.30
2022-10-19T02:51:44.074Z,14.40
2022-10-19T02:54:14.072Z,14.50
2022-10-19T02:56:44.169Z,14.50
2022-10-19T02:59:14.257Z,14.40
2022-10-19T03:01:44.353Z,14.30
2022-10-19T03:04:17.061Z,14.30
2022-10-19T03:06:47.326Z,14.30
2022-10-19T03:09:17.341Z,14.30
2022-10-19T03:11:47.385Z,14.40
2022-10-19T03:14:17.515Z,14.30
2022-10-19T03:16:47.551Z,14.20
2022-10-19T03:19:20.171Z,14.20
2022-10-19T03:21:50.221Z,14.00
2022-10-19T03:24:20.651Z,14.10
2022-10-19T03:26:50.695Z,14.10
2022-10-19T03:29:20.717Z,14.30
2022-10-19T03:31:50.937Z,14.30
2022-10-19T03:34:23.633Z,14.40
2022-10-19T03:36:53.728Z,14.40
2022-10-19T03:39:23.758Z,14.40
2022-10-19T03:41:54.004Z,14.50
2022-10-19T03:44:24.007Z,14.40
2022-10-19T03:46:54.178Z,14.30
2022-10-19T03:49:27.368Z,14.20
2022-10-19T03:51:57.371Z,14.10
2022-10-19T03:54:27.647Z,14.20
2022-10-19T03:56:57.789Z,14.20
2022-10-19T03:59:27.844Z,14.20
2022-10-19T04:01:57.859Z,14.10
2022-10-19T04:04:30.490Z,14.10
2022-10-19T04:07:00.528Z,14.10
2022-10-19T04:09:30.692Z,14.10
2022-10-19T04:12:00.707Z,13.90
2022-10-19T04:14:33.072Z,13.90
2022-10-19T04:17:09.372Z,13.70
2022-10-19T04:19:42.005Z,13.50
2022-10-19T04:22:12.017Z,13.30
2022-10-19T04:24:41.999Z,13.20
2022-10-19T04:27:11.965Z,13.30
2022-10-19T04:29:41.988Z,13.30
2022-10-19T04:32:12.053Z,13.40
2022-10-19T04:34:44.613Z,13.50
2022-10-19T04:37:14.617Z,13.50
2022-10-19T04:39:44.792Z,13.60
2022-10-19T04:42:14.884Z,13.70
2022-10-19T04:44:44.949Z,13.70
2022-10-19T04:47:15.672Z,13.70
2022-10-19T04:49:48.277Z,13.70
2022-10-19T04:52:18.309Z,13.80
2022-10-19T04:54:49.082Z,13.90
2022-10-19T04:57:19.126Z,13.80
2022-10-19T04:59:50.494Z,13.90
2022-10-19T05:02:20.597Z,13.80
2022-10-19T05:04:53.739Z,13.90
2022-10-19T05:07:23.730Z,13.80
2022-10-19T05:09:53.813Z,13.70
2022-10-19T05:12:23.849Z,13.60
2022-10-19T05:14:53.858Z,13.70
2022-10-19T05:17:23.949Z,13.70
2022-10-19T05:19:56.579Z,13.80
2022-10-19T05:22:26.679Z,13.80
2022-10-19T05:24:58.187Z,13.70
2022-10-19T05:27:28.553Z,13.70
2022-10-19T05:29:58.642Z,13.70
2022-10-19T05:32:30.174Z,13.70
2022-10-19T05:35:03.003Z,13.80
2022-10-19T05:37:33.515Z,13.80
2022-10-19T05:40:03.741Z,13.70
2022-10-19T05:42:33.840Z,13.70
2022-10-19T05:45:03.829Z,13.80
2022-10-19T05:47:35.292Z,13.90
2022-10-19T05:50:09.295Z,13.90
2022-10-19T05:52:39.327Z,14.00
2022-10-19T05:55:11.389Z,13.90
2022-10-19T05:57:41.404Z,14.00
2022-10-19T06:00:14.352Z,14.00
2022-10-19T06:02:44.668Z,14.10
2022-10-19T06:05:17.496Z,14.10
2022-10-19T06:07:47.561Z,14.30
2022-10-19T06:10:17.784Z,14.40
2022-10-19T06:12:47.837Z,14.50
2022-10-19T06:15:18.044Z,14.60
2022-10-19T06:17:48.233Z,14.70
2022-10-19T06:20:21.125Z,14.60
2022-10-19T06:22:51.132Z,14.60
2022-10-19T06:25:21.152Z,14.60
2022-10-19T06:27:51.284Z,14.70
2022-10-19T06:30:21.496Z,14.60
2022-10-19T06:32:51.698Z,14.70
2022-10-19T06:35:24.430Z,14.80
2022-10-19T06:37:54.449Z,14.90
2022-10-19T06:40:24.649Z,15.00
2022-10-19T06:42:55.184Z,15.00
2022-10-19T06:45:25.321Z,15.00
2022-10-19T06:47:55.622Z,15.00
2022-10-19T06:50:28.245Z,15.00
2022-10-19T06:52:58.284Z,15.00
2022-10-19T06:55:28.695Z,15.10
2022-10-19T06:57:58.688Z,15.10
2022-10-19T07:00:28.651Z,15.10
2022-10-19T07:02:59.153Z,15.20
2022-10-19T07:05:31.836Z,15.20
2022-10-19T07:08:01.923Z,15.40
2022-10-19T07:10:32.045Z,15.40
2022-10-19T07:13:02.150Z,15.50
2022-10-19T07:15:32.225Z,15.60
2022-10-19T07:18:02.483Z,15.60
2022-10-19T07:20:35.095Z,15.70
2022-10-19T07:23:05.372Z,15.90
2022-10-19T07:25:35.576Z,15.90
2022-10-19T07:28:05.681Z,15.90
2022-10-19T07:30:35.844Z,16.00
2022-10-19T07:33:06.793Z,16.10
2022-10-19T07:35:39.519Z,16.20
2022-10-19T07:38:09.537Z,16.30
2022-10-19T07:40:43.568Z,16.40
2022-10-19T07:43:16.450Z,16.40
2022-10-19T07:45:46.419Z,16.50
2022-10-19T07:48:16.377Z,16.70
2022-10-19T07:50:52.311Z,16.60
2022-10-19T07:53:22.432Z,16.70
2022-10-19T07:55:52.432Z,16.80
2022-10-19T07:58:22.562Z,16.90
2022-10-19T08:00:52.583Z,17.00
2022-10-19T08:06:19.155Z,17.20
2022-10-19T08:08:51.009Z,17.40
2022-10-19T08:11:24.804Z,17.50
2022-10-19T08:13:55.477Z,17.70
2022-10-19T08:16:29.545Z,17.90
2022-10-19T08:19:03.480Z,18.00
2022-10-19T08:21:37.144Z,18.10
2022-10-19T08:24:07.967Z,18.30
2022-10-19T08:26:40.876Z,18.40
2022-10-19T08:29:15.117Z,18.40
2022-10-19T08:31:47.392Z,18.30
2022-10-19T08:34:18.709Z,18.30
2022-10-19T08:36:51.350Z,18.30
2022-10-19T08:39:21.367Z,18.20
2022-10-19T08:42:04.655Z,18.10
2022-10-19T08:44:58.754Z,18.10
2022-10-19T08:47:57.147Z,18.10
2022-10-19T08:50:32.376Z,18.10
2022-10-19T08:53:09.211Z,18.10
2022-10-19T08:55:55.435Z,18.30
2022-10-19T08:58:59.621Z,18.50
2022-10-19T09:01:43.590Z,18.70
2022-10-19T09:04:24.068Z,19.00
2022-10-19T09:07:28.353Z,19.30
2022-10-19T09:10:12.231Z,19.10
2022-10-19T09:12:55.088Z,19.10
2022-10-19T09:15:37.356Z,19.10
2022-10-19T09:18:12.644Z,18.90
2022-10-19T09:20:48.447Z,18.80
2022-10-19T09:23:29.333Z,18.70
2022-10-19T09:26:02.034Z,18.80
2022-10-19T09:28:48.253Z,18.80
2022-10-19T09:31:31.457Z,18.90
2022-10-19T09:34:06.231Z,19.20
2022-10-19T09:36:50.358Z,19.00
2022-10-19T09:39:23.479Z,19.00
2022-10-19T09:42:00.834Z,18.90
2022-10-19T09:44:31.319Z,19.00
2022-10-19T09:47:27.490Z,19.00
2022-10-19T09:50:17.208Z,19.10
2022-10-19T09:52:49.054Z,18.90
2022-10-19T09:55:30.019Z,18.90
2022-10-19T09:58:18.916Z,19.20
2022-10-19T10:00:54.911Z,19.30
2022-10-19T10:03:33.103Z,19.20
2022-10-19T10:06:08.619Z,19.30
2022-10-19T10:08:42.818Z,19.50
2022-10-19T10:11:16.872Z,19.60
2022-10-19T10:13:55.809Z,19.50
2022-10-19T10:16:33.813Z,19.30
2022-10-19T10:19:08.486Z,19.00
2022-10-19T10:21:52.623Z,19.00
2022-10-19T10:24:25.223Z,18.90
2022-10-19T10:26:58.857Z,18.80
2022-10-19T10:29:34.754Z,18.90
2022-10-19T10:32:10.481Z,19.10
2022-10-19T10:34:50.628Z,19.50
2022-10-19T10:37:27.164Z,19.80
2022-10-19T10:40:03.502Z,20.00
2022-10-19T10:42:44.702Z,20.00
2022-10-19T10:45:28.727Z,19.80
2022-10-19T10:48:00.749Z,19.90
2022-10-19T10:50:39.195Z,20.10
2022-10-19T10:53:38.294Z,20.20
2022-10-19T10:56:24.455Z,20.40
2022-10-19T10:59:01.639Z,20.70
2022-10-19T11:01:43.908Z,20.90
2022-10-19T11:04:20.783Z,20.90
2022-10-19T11:07:02.051Z,20.50
2022-10-19T11:09:39.294Z,20.80
2022-10-19T11:12:18.940Z,21.40
2022-10-19T11:14:53.750Z,21.90
2022-10-19T11:17:33.353Z,22.10
2022-10-19T11:20:03.718Z,21.60
2022-10-19T11:22:42.567Z,21.20
2022-10-19T11:25:35.341Z,20.90
2022-10-19T11:28:26.372Z,20.90
2022-10-19T11:31:07.017Z,20.80
2022-10-19T11:33:57.981Z,20.60
2022-10-19T11:36:48.608Z,20.50
2022-10-19T11:39:38.389Z,20.50
2022-10-19T11:42:21.725Z,20.50
2022-10-19T11:45:08.669Z,20.60
2022-10-19T11:48:01.852Z,20.70
2022-10-19T11:50:54.207Z,21.10
2022-10-19T11:53:44.819Z,21.50
2022-10-19T11:56:38.895Z,21.50
2022-10-19T11:59:31.206Z,21.50
2022-10-19T12:02:25.976Z,21.30
2022-10-19T12:05:01.485Z,21.20
2022-10-19T12:07:57.697Z,21.20
2022-10-19T12:10:38.403Z,20.70
2022-10-19T12:13:15.499Z,20.60
2022-10-19T12:15:53.817Z,20.50
2022-10-19T12:18:34.933Z,20.70
2022-10-19T12:21:12.413Z,20.80
2022-10-19T12:23:48.935Z,20.90
2022-10-19T12:26:22.722Z,21.20
2022-10-19T12:28:58.331Z,21.00
2022-10-19T12:31:31.053Z,21.20
2022-10-19T12:34:10.605Z,21.30
2022-10-19T12:36:54.372Z,21.00
2022-10-19T12:39:37.690Z,21.20
2022-10-19T12:42:21.222Z,21.10
2022-10-19T12:45:26.594Z,21.50
2022-10-19T12:48:24.589Z,21.70
2022-10-19T12:51:12.184Z,22.00
2022-10-19T12:53:48.795Z,22.00
2022-10-19T12:56:29.494Z,22.00
2022-10-19T12:59:03.941Z,21.70
2022-10-19T13:01:48.194Z,21.40
2022-10-19T13:04:23.905Z,21.60
2022-10-19T13:07:04.032Z,21.70
2022-10-19T13:09:39.048Z,21.70
2022-10-19T13:14:59.899Z,21.00
2022-10-19T13:17:48.455Z,21.10
2022-10-19T13:20:54.433Z,21.10
2022-10-19T13:23:42.974Z,21.30
2022-10-19T13:26:37.110Z,20.60
2022-10-19T13:29:28.930Z,20.20
2022-10-19T13:32:49.023Z,19.80
2022-10-19T13:35:32.277Z,19.70
2022-10-19T13:38:37.442Z,19.50
2022-10-19T13:41:18.246Z,19.10
2022-10-19T13:44:04.458Z,19.00
2022-10-19T13:46:57.029Z,18.90
2022-10-19T13:50:16.252Z,18.80
2022-10-19T13:53:18.388Z,18.80
2022-10-19T13:56:29.387Z,18.80
2022-10-19T13:59:54.993Z,18.80
2022-10-19T14:02:58.957Z,18.50
2022-10-19T14:06:02.368Z,18.60
2022-10-19T14:09:15.056Z,18.90
2022-10-19T14:11:48.276Z,19.10
2022-10-19T14:14:21.970Z,18.90
2022-10-19T14:17:01.187Z,19.00
2022-10-19T14:19:44.584Z,18.80
2022-10-19T14:22:30.179Z,18.50
2022-10-19T14:25:08.370Z,18.30
2022-10-19T14:27:39.065Z,18.00
2022-10-19T14:30:24.306Z,17.90
2022-10-19T14:32:59.440Z,17.70
2022-10-19T14:35:37.256Z,17.60
2022-10-19T14:38:11.946Z,17.50
2022-10-19T14:40:44.203Z,17.50
2022-10-19T14:43:25.273Z,17.50
2022-10-19T14:46:16.131Z,17.50
2022-10-19T14:48:49.001Z,17.50
2022-10-19T14:51:37.365Z,17.50
2022-10-19T14:54:17.608Z,17.40
2022-10-19T14:56:56.234Z,17.30
2022-10-19T14:59:31.990Z,17.30
2022-10-19T15:02:08.079Z,17.30
2022-10-19T15:04:42.362Z,17.20
2022-10-19T15:07:23.674Z,17.20
2022-10-19T15:10:01.727Z,17.20
2022-10-19T15:12:39.248Z,17.30
2022-10-19T15:15:19.466Z,17.40
2022-10-19T15:17:56.695Z,17.60
2022-10-19T15:20:36.384Z,17.80
2022-10-19T15:23:41.027Z,17.80
2022-10-19T15:26:24.814Z,17.90
2022-10-19T15:28:56.325Z,17.90
2022-10-19T15:31:31.838Z,17.90
2022-10-19T15:34:05.505Z,17.90
2022-10-19T15:36:36.345Z,17.80
2022-10-19T15:39:25.045Z,17.70
2022-10-19T15:41:58.526Z,17.60
2022-10-19T15:44:42.923Z,17.50
2022-10-19T15:47:25.523Z,17.50
2022-10-19T15:50:03.986Z,17.30
2022-10-19T15:52:36.965Z,17.00
2022-10-19T15:55:07.936Z,16.80
2022-10-19T15:57:41.671Z,16.50
2022-10-19T16:00:20.320Z,16.40
2022-10-19T16:02:50.490Z,16.30
2022-10-19T16:05:20.829Z,16.10
2022-10-19T16:07:51.222Z,16.00
2022-10-19T16:10:24.432Z,15.80
2022-10-19T16:12:57.256Z,15.70
2022-10-19T16:15:27.701Z,15.60
2022-10-19T16:18:01.338Z,15.70
2022-10-19T16:20:32.961Z,15.70
2022-10-19T16:23:03.278Z,15.70
2022-10-19T16:25:33.310Z,15.60
2022-10-19T16:28:06.457Z,15.50
2022-10-19T16:30:36.493Z,15.50
2022-10-19T16:33:07.112Z,15.40
2022-10-19T16:35:37.148Z,15.30
2022-10-19T16:38:07.252Z,15.30
2022-10-19T16:40:37.374Z,15.30
2022-10-19T16:43:10.314Z,15.20
2022-10-19T16:45:45.817Z,15.10
2022-10-19T16:48:17.409Z,15.00
2022-10-19T16:50:49.010Z,14.90
2022-10-19T16:53:19.067Z,14.70
2022-10-19T16:55:49.148Z,14.60
2022-10-19T16:58:21.866Z,14.40
2022-10-19T17:00:52.242Z,14.10
2022-10-19T17:03:22.481Z,14.00
2022-10-19T17:05:52.547Z,13.90
2022-10-19T17:08:36.384Z,13.90
2022-10-19T17:11:16.958Z,14.00
2022-10-19T17:13:53.051Z,13.80
2022-10-19T17:16:25.563Z,13.70
2022-10-19T17:18:58.705Z,13.50
2022-10-19T17:21:31.850Z,13.40
2022-10-19T17:24:05.593Z,13.40
2022-10-19T17:26:39.020Z,13.40
2022-10-19T17:29:12.624Z,13.50
2022-10-19T17:31:44.857Z,13.50
2022-10-19T17:34:15.270Z,13.50
2022-10-19T17:36:48.038Z,13.40
2022-10-19T17:39:25.545Z,13.20
2022-10-19T17:42:03.318Z,13.00
2022-10-19T17:44:36.134Z,13.00
2022-10-19T17:47:06.524Z,12.90
2022-10-19T17:49:36.618Z,12.90
2022-10-19T17:52:06.843Z,13.00
2022-10-19T17:54:48.527Z,13.00
2022-10-19T17:57:27.346Z,13.10
2022-10-19T18:00:00.088Z,13.00
2022-10-19T18:02:30.254Z,12.80
2022-10-19T18:05:00.345Z,12.50
2022-10-19T18:07:30.858Z,12.40
2022-10-19T18:10:00.932Z,12.30
2022-10-19T18:12:31.418Z,12.40
2022-10-19T18:15:04.289Z,12.50
2022-10-19T18:17:34.919Z,12.60
2022-10-19T18:20:05.311Z,12.60
2022-10-19T18:22:35.627Z,12.60
2022-10-19T18:25:05.942Z,12.60
2022-10-19T18:27:37.592Z,12.60
2022-10-19T18:30:12.255Z,12.70
2022-10-19T18:32:42.370Z,12.70
2022-10-19T18:35:12.959Z,12.70
2022-10-19T18:37:43.032Z,12.70
2022-10-19T18:40:14.057Z,12.60
2022-10-19T18:42:44.174Z,12.60
2022-10-19T18:45:17.008Z,12.70
2022-10-19T18:47:47.137Z,12.60
2022-10-19T18:50:17.687Z,12.60
2022-10-19T18:52:48.046Z,12.40
2022-10-19T18:55:18.582Z,12.30
2022-10-19T18:57:48.790Z,12.30
2022-10-19T19:00:22.217Z,12.10
2022-10-19T19:02:56.642Z,12.00
2022-10-19T19:05:27.125Z,11.90
2022-10-19T19:07:57.801Z,11.90
2022-10-19T19:10:28.038Z,12.00
2022-10-19T19:12:58.106Z,12.10
2022-10-19T19:15:30.738Z,12.10
2022-10-19T19:18:00.772Z,12.00
2022-10-19T19:20:30.808Z,12.10
2022-10-19T19:23:00.886Z,12.10
2022-10-19T19:25:32.136Z,12.10
2022-10-19T19:28:02.429Z,12.10
2022-10-19T19:30:35.441Z,12.10
2022-10-19T19:33:05.650Z,12.10
2022-10-19T19:35:35.784Z,12.10
2022-10-19T19:38:05.833Z,12.20
2022-10-19T19:40:36.292Z,12.40
2022-10-19T19:43:06.432Z,12.40
2022-10-19T19:45:40.883Z,12.40
2022-10-19T19:48:12.944Z,12.40
2022-10-19T19:50:43.018Z,12.40
2022-10-19T19:53:13.107Z,12.30
2022-10-19T19:55:43.369Z,12.20
2022-10-19T19:58:15.496Z,12.10
2022-10-19T20:00:48.849Z,12.10
2022-10-19T20:03:18.953Z,12.10
2022-10-19T20:05:49.200Z,12.00
2022-10-19T20:08:19.270Z,11.90
2022-10-19T20:10:49.468Z,11.90
2022-10-19T20:13:19.498Z,12.00
2022-10-19T20:15:53.872Z,11.90
2022-10-19T20:18:24.621Z,11.60
2022-10-19T20:20:54.678Z,11.40
2022-10-19T20:23:24.826Z,11.40
2022-10-19T20:25:56.664Z,11.30
2022-10-19T20:28:27.956Z,11.40
2022-10-19T20:31:09.992Z,11.40
2022-10-19T20:33:43.097Z,11.40
2022-10-19T20:36:16.737Z,11.40
2022-10-19T20:38:51.041Z,11.40
2022-10-19T20:41:24.314Z,11.20
2022-10-19T20:43:55.796Z,11.20
2022-10-19T20:46:31.667Z,11.20
2022-10-19T20:49:04.629Z,11.20
2022-10-19T20:51:37.929Z,11.30
2022-10-19T20:54:12.384Z,11.30
2022-10-19T20:56:44.153Z,11.40
2022-10-19T20:59:17.485Z,11.40
2022-10-19T21:01:54.145Z,11.50
2022-10-19T21:04:25.679Z,11.50
2022-10-19T21:06:56.430Z,11.50
2022-10-19T21:09:28.037Z,11.50
2022-10-19T21:11:58.294Z,11.50
2022-10-19T21:14:31.200Z,11.30
2022-10-19T21:17:03.899Z,11.20
2022-10-19T21:19:34.399Z,11.20
2022-10-19T21:22:06.341Z,11.10
2022-10-19T21:24:39.600Z,11.00
2022-10-19T21:27:12.519Z,11.10
2022-10-19T21:29:42.934Z,11.20
2022-10-19T21:32:15.927Z,11.10
2022-10-19T21:34:46.008Z,11.20
2022-10-19T21:37:16.040Z,11.10
2022-10-19T21:39:46.115Z,11.10
2022-10-19T21:42:16.282Z,11.10
2022-10-19T21:44:46.348Z,11.20
2022-10-19T21:47:19.366Z,11.10
2022-10-19T21:49:49.384Z,11.10
2022-10-19T21:52:19.622Z,11.10
2022-10-19T21:54:49.725Z,11.30
2022-10-19T21:57:19.939Z,11.40
2022-10-19T21:59:50.140Z,11.50
2022-10-19T22:02:23.063Z,11.60
2022-10-19T22:04:53.288Z,11.60
2022-10-19T22:07:23.586Z,11.60
2022-10-19T22:09:53.777Z,11.60
2022-10-19T22:12:23.840Z,11.60
2022-10-19T22:14:54.156Z,11.60
2022-10-19T22:17:26.816Z,11.50
2022-10-19T22:19:57.729Z,11.40
2022-10-19T22:22:27.823Z,11.30
2022-10-19T22:24:57.936Z,11.20
2022-10-19T22:27:28.112Z,11.20
2022-10-19T22:29:58.512Z,11.20
2022-10-19T22:32:31.344Z,11.20
2022-10-19T22:35:01.492Z,11.30
2022-10-19T22:37:31.591Z,11.40
2022-10-19T22:40:01.974Z,11.30
2022-10-19T22:42:32.017Z,11.20
2022-10-19T22:45:02.087Z,11.20
2022-10-19T22:47:34.971Z,11.20
2022-10-19T22:50:06.823Z,11.20
2022-10-19T22:52:37.367Z,11.30
2022-10-19T22:55:08.819Z,11.40
2022-10-19T22:57:38.841Z,11.40
2022-10-19T23:00:11.266Z,11.50
2022-10-19T23:02:44.171Z,11.30
2022-10-19T23:05:15.219Z,11.00
2022-10-19T23:07:45.302Z,10.90
2022-10-19T23:10:15.589Z,10.90
2022-10-19T23:12:45.937Z,11.00
2022-10-19T23:15:16.254Z,11.20
2022-10-19T23:17:49.000Z,11.40
2022-10-19T23:20:19.368Z,11.60
2022-10-19T23:22:49.452Z,11.60
2022-10-19T23:25:19.928Z,11.70
2022-10-19T23:27:51.783Z,11.80
2022-10-19T23:30:22.195Z,11.80
2022-10-19T23:32:54.964Z,11.80
2022-10-19T23:35:25.084Z,11.80
2022-10-19T23:37:55.140Z,11.80
2022-10-19T23:40:25.518Z,11.90
2022-10-19T23:42:57.394Z,11.80
2022-10-19T23:45:27.577Z,11.90
2022-10-19T23:48:00.199Z,11.80
2022-10-19T23:50:30.355Z,11.80
2022-10-19T23:53:00.650Z,11.70
2022-10-19T23:55:30.986Z,11.70
2022-10-19T23:58:01.100Z,11.80
